sensor_id;sensor_type;location;lat;lon;timestamp;temperature;humidity
66184;DHT22;52989;48.796;9.806;2022-10-31T00:01:54;9.20;99.90
66184;DHT22;52989;48.796;9.806;2022-10-31T00:04:19;9.20;99.90
66184;DHT22;52989;48.796;9.806;2022-10-31T00:06:45;9.20;99.90
66184;DHT22;52989;48.796;9.806;2022-10-31T00:09:10;9.30;99.90
66184;DHT22;52989;48.796;9.806;2022-10-31T00:11:36;9.30;99.90
66184;DHT22;52989;48.796;9.806;2022-10-31T00:14:02;9.30;99.90
66184;DHT22;52989;48.796;9.806;2022-10-31T00:16:28;9.20;99.90
66184;DHT22;52989;48.796;9.806;2022-10-31T00:18:55;9.20;99.90
66184;DHT22;52989;48.796;9.806;2022-10-31T00:21:20;9.10;99.90
66184;DHT22;52989;48.796;9.806;2022-10-31T00:23:46;9.10;99.90
66184;DHT22;52989;48.796;9.806;2022-10-31T00:26:12;9.10;99.90
66184;DHT22;52989;48.796;9.806;2022-10-31T00:28:37;9.20;99.90
66184;DHT22;52989;48.796;9.806;2022-10-31T00:31:04;9.10;99.90
66184;DHT22;52989;48.796;9.806;2022-10-31T00:33:30;9.10;99.90
66184;DHT22;52989;48.796;9.806;2022-10-31T00:35:57;9.00;99.90
66184;DHT22;52989;48.796;9.806;2022-10-31T00:38:23;9.10;99.90
66184;DHT22;52989;48.796;9.806;2022-10-31T00:40:48;9.10;99.90
66184;DHT22;52989;48.796;9.806;2022-10-31T00:43:14;9.00;99.90
66184;DHT22;52989;48.796;9.806;2022-10-31T00:45:40;9.00;99.90
66184;DHT22;52989;48.796;9.806;2022-10-31T00:48:06;9.10;99.90
66184;DHT22;52989;48.796;9.806;2022-10-31T00:50:31;9.30;99.90
66184;DHT22;52989;48.796;9.806;2022-10-31T00:52:56;9.20;99.90
66184;DHT22;52989;48.796;9.806;2022-10-31T00:55:23;9.20;99.90
66184;DHT22;52989;48.796;9.806;2022-10-31T00:57:48;9.20;99.90
66184;DHT22;52989;48.796;9.806;2022-10-31T01:00:14;9.20;99.90
66184;DHT22;52989;48.796;9.806;2022-10-31T01:02:39;9.10;99.90
66184;DHT22;52989;48.796;9.806;2022-10-31T01:05:05;9.00;99.90
66184;DHT22;52989;48.796;9.806;2022-10-31T01:07:31;8.90;99.90
66184;DHT22;52989;48.796;9.806;2022-10-31T01:09:56;8.90;99.90
66184;DHT22;52989;48.796;9.806;2022-10-31T01:12:22;8.80;99.90
66184;DHT22;52989;48.796;9.806;2022-10-31T01:14:47;8.80;99.90
66184;DHT22;52989;48.796;9.806;2022-10-31T01:17:13;8.80;99.90
66184;DHT22;52989;48.796;9.806;2022-10-31T01:19:39;8.90;99.90
66184;DHT22;52989;48.796;9.806;2022-10-31T01:22:04;9.20;99.90
66184;DHT22;52989;48.796;9.806;2022-10-31T01:24:30;9.10;99.90
66184;DHT22;52989;48.796;9.806;2022-10-31T01:26:55;9.00;99.90
66184;DHT22;52989;48.796;9.806;2022-10-31T01:29:21;9.00;99.90
66184;DHT22;52989;48.796;9.806;2022-10-31T01:31:46;8.80;99.90
66184;DHT22;52989;48.796;9.806;2022-10-31T01:34:12;8.80;99.90
66184;DHT22;52989;48.796;9.806;2022-10-31T01:36:38;8.70;99.90
66184;DHT22;52989;48.796;9.806;2022-10-31T01:39:05;8.60;99.90
66184;DHT22;52989;48.796;9.806;2022-10-31T01:41:32;8.60;99.90
66184;DHT22;52989;48.796;9.806;2022-10-31T01:43:59;8.60;99.90
66184;DHT22;52989;48.796;9.806;2022-10-31T01:46:32;8.60;99.90
66184;DHT22;52989;48.796;9.806;2022-10-31T01:48:59;8.60;99.90
66184;DHT22;52989;48.796;9.806;2022-10-31T01:51:26;8.60;99.90
66184;DHT22;52989;48.796;9.806;2022-10-31T01:53:54;8.50;99.90
66184;DHT22;52989;48.796;9.806;2022-10-31T01:56:20;8.60;99.90
66184;DHT22;52989;48.796;9.806;2022-10-31T01:58:46;8.60;99.90
66184;DHT22;52989;48.796;9.806;2022-10-31T02:01:12;8.60;99.90
66184;DHT22;52989;48.796;9.806;2022-10-31T02:03:39;8.70;99.90
66184;DHT22;52989;48.796;9.806;2022-10-31T02:06:05;9.00;99.90
66184;DHT22;52989;48.796;9.806;2022-10-31T02:08:33;9.90;99.90
66184;DHT22;52989;48.796;9.806;2022-10-31T02:11:00;10.20;99.90
66184;DHT22;52989;48.796;9.806;2022-10-31T02:13:25;9.70;99.90
66184;DHT22;52989;48.796;9.806;2022-10-31T02:15:54;9.60;99.90
66184;DHT22;52989;48.796;9.806;2022-10-31T02:18:20;8.90;99.90
66184;DHT22;52989;48.796;9.806;2022-10-31T02:23:27;8.50;99.90
66184;DHT22;52989;48.796;9.806;2022-10-31T02:33:30;8.30;99.90
66184;DHT22;52989;48.796;9.806;2022-10-31T02:38:25;8.40;99.90
66184;DHT22;52989;48.796;9.806;2022-10-31T02:40:59;8.40;99.90
66184;DHT22;52989;48.796;9.806;2022-10-31T02:43:27;8.30;99.90
66184;DHT22;52989;48.796;9.806;2022-10-31T02:45:58;8.30;99.90
66184;DHT22;52989;48.796;9.806;2022-10-31T02:48:26;8.20;99.90
66184;DHT22;52989;48.796;9.806;2022-10-31T02:50:52;8.20;99.90
66184;DHT22;52989;48.796;9.806;2022-10-31T02:53:19;8.40;99.90
66184;DHT22;52989;48.796;9.806;2022-10-31T02:56:18;8.70;99.90
66184;DHT22;52989;48.796;9.806;2022-10-31T02:58:39;8.50;99.90
66184;DHT22;52989;48.796;9.806;2022-10-31T03:03:43;8.30;99.90
66184;DHT22;52989;48.796;9.806;2022-10-31T03:11:23;8.00;99.90
66184;DHT22;52989;48.796;9.806;2022-10-31T03:13:50;8.00;99.90
66184;DHT22;52989;48.796;9.806;2022-10-31T03:18:49;7.90;99.90
66184;DHT22;52989;48.796;9.806;2022-10-31T03:21:22;7.90;99.90
66184;DHT22;52989;48.796;9.806;2022-10-31T03:23:49;7.90;99.90
66184;DHT22;52989;48.796;9.806;2022-10-31T03:26:16;7.90;99.90
66184;DHT22;52989;48.796;9.806;2022-10-31T03:28:43;7.90;99.90
66184;DHT22;52989;48.796;9.806;2022-10-31T03:31:10;8.00;99.90
66184;DHT22;52989;48.796;9.806;2022-10-31T03:33:36;8.10;99.90
66184;DHT22;52989;48.796;9.806;2022-10-31T03:36:04;8.50;99.90
66184;DHT22;52989;48.796;9.806;2022-10-31T03:38:30;8.10;99.90
66184;DHT22;52989;48.796;9.806;2022-10-31T03:40:56;8.00;99.90
66184;DHT22;52989;48.796;9.806;2022-10-31T03:43:25;8.00;99.90
66184;DHT22;52989;48.796;9.806;2022-10-31T03:45:51;7.90;99.90
66184;DHT22;52989;48.796;9.806;2022-10-31T03:48:18;8.10;99.90
66184;DHT22;52989;48.796;9.806;2022-10-31T03:53:37;8.50;99.90
66184;DHT22;52989;48.796;9.806;2022-10-31T03:56:09;8.10;99.90
66184;DHT22;52989;48.796;9.806;2022-10-31T03:58:36;8.00;99.90
66184;DHT22;52989;48.796;9.806;2022-10-31T04:01:05;8.00;99.90
66184;DHT22;52989;48.796;9.806;2022-10-31T04:03:32;8.00;99.90
66184;DHT22;52989;48.796;9.806;2022-10-31T04:06:01;7.90;99.90
66184;DHT22;52989;48.796;9.806;2022-10-31T04:08:28;7.90;99.90
66184;DHT22;52989;48.796;9.806;2022-10-31T04:10:55;8.00;99.90
66184;DHT22;52989;48.796;9.806;2022-10-31T04:13:23;8.00;99.90
66184;DHT22;52989;48.796;9.806;2022-10-31T04:15:50;7.90;99.90
66184;DHT22;52989;48.796;9.806;2022-10-31T04:18:17;7.80;99.90
66184;DHT22;52989;48.796;9.806;2022-10-31T04:20:42;7.80;99.90
66184;DHT22;52989;48.796;9.806;2022-10-31T04:23:14;7.80;99.90
66184;DHT22;52989;48.796;9.806;2022-10-31T04:25:41;7.80;99.90
66184;DHT22;52989;48.796;9.806;2022-10-31T04:28:07;7.90;99.90
66184;DHT22;52989;48.796;9.806;2022-10-31T04:30:32;7.80;99.90
66184;DHT22;52989;48.796;9.806;2022-10-31T04:32:58;7.90;99.90
66184;DHT22;52989;48.796;9.806;2022-10-31T04:35:23;7.80;99.90
66184;DHT22;52989;48.796;9.806;2022-10-31T04:37:48;7.80;99.90
66184;DHT22;52989;48.796;9.806;2022-10-31T04:40:14;7.70;99.90
66184;DHT22;52989;48.796;9.806;2022-10-31T04:42:39;7.70;99.90
66184;DHT22;52989;48.796;9.806;2022-10-31T04:45:05;7.70;99.90
66184;DHT22;52989;48.796;9.806;2022-10-31T04:47:31;7.70;99.90
66184;DHT22;52989;48.796;9.806;2022-10-31T04:49:58;7.60;99.90
66184;DHT22;52989;48.796;9.806;2022-10-31T04:52:23;7.70;99.90
66184;DHT22;52989;48.796;9.806;2022-10-31T04:54:49;7.60;99.90
66184;DHT22;52989;48.796;9.806;2022-10-31T04:57:14;7.70;99.90
66184;DHT22;52989;48.796;9.806;2022-10-31T04:59:40;7.80;99.90
66184;DHT22;52989;48.796;9.806;2022-10-31T05:02:05;7.90;99.90
66184;DHT22;52989;48.796;9.806;2022-10-31T05:04:30;7.80;99.90
66184;DHT22;52989;48.796;9.806;2022-10-31T05:06:56;7.80;99.90
66184;DHT22;52989;48.796;9.806;2022-10-31T05:09:21;7.70;99.90
66184;DHT22;52989;48.796;9.806;2022-10-31T05:11:47;7.60;99.90
66184;DHT22;52989;48.796;9.806;2022-10-31T05:14:12;7.50;99.90
66184;DHT22;52989;48.796;9.806;2022-10-31T05:16:38;7.60;99.90
66184;DHT22;52989;48.796;9.806;2022-10-31T05:19:03;7.60;99.90
66184;DHT22;52989;48.796;9.806;2022-10-31T05:21:28;7.60;99.90
66184;DHT22;52989;48.796;9.806;2022-10-31T05:23:54;7.80;99.90
66184;DHT22;52989;48.796;9.806;2022-10-31T05:26:19;8.00;99.90
66184;DHT22;52989;48.796;9.806;2022-10-31T05:28:45;8.20;99.90
66184;DHT22;52989;48.796;9.806;2022-10-31T05:31:10;7.90;99.90
66184;DHT22;52989;48.796;9.806;2022-10-31T05:33:36;7.60;99.90
66184;DHT22;52989;48.796;9.806;2022-10-31T05:36:01;7.50;99.90
66184;DHT22;52989;48.796;9.806;2022-10-31T05:38:27;7.50;99.90
66184;DHT22;52989;48.796;9.806;2022-10-31T05:40:55;7.80;99.90
66184;DHT22;52989;48.796;9.806;2022-10-31T05:43:27;7.60;99.90
66184;DHT22;52989;48.796;9.806;2022-10-31T05:45:53;7.60;99.90
66184;DHT22;52989;48.796;9.806;2022-10-31T05:48:19;7.40;99.90
66184;DHT22;52989;48.796;9.806;2022-10-31T05:50:44;7.60;99.90
66184;DHT22;52989;48.796;9.806;2022-10-31T05:53:10;7.40;99.90
66184;DHT22;52989;48.796;9.806;2022-10-31T05:55:35;7.30;99.90
66184;DHT22;52989;48.796;9.806;2022-10-31T05:58:01;7.60;99.90
66184;DHT22;52989;48.796;9.806;2022-10-31T06:00:27;7.20;99.90
66184;DHT22;52989;48.796;9.806;2022-10-31T06:02:59;7.10;99.90
66184;DHT22;52989;48.796;9.806;2022-10-31T06:05:25;7.10;99.90
66184;DHT22;52989;48.796;9.806;2022-10-31T06:07:50;7.10;99.90
66184;DHT22;52989;48.796;9.806;2022-10-31T06:10:16;7.00;99.90
66184;DHT22;52989;48.796;9.806;2022-10-31T06:12:41;7.10;99.90
66184;DHT22;52989;48.796;9.806;2022-10-31T06:15:07;7.10;99.90
66184;DHT22;52989;48.796;9.806;2022-10-31T06:17:34;7.30;99.90
66184;DHT22;52989;48.796;9.806;2022-10-31T06:19:59;7.20;99.90
66184;DHT22;52989;48.796;9.806;2022-10-31T06:22:25;7.40;99.90
66184;DHT22;52989;48.796;9.806;2022-10-31T06:24:50;7.40;99.90
66184;DHT22;52989;48.796;9.806;2022-10-31T06:27:16;7.30;99.90
66184;DHT22;52989;48.796;9.806;2022-10-31T06:29:41;7.40;99.90
66184;DHT22;52989;48.796;9.806;2022-10-31T06:32:09;7.90;99.90
66184;DHT22;52989;48.796;9.806;2022-10-31T06:34:35;7.70;99.90
66184;DHT22;52989;48.796;9.806;2022-10-31T06:37:00;7.80;99.90
66184;DHT22;52989;48.796;9.806;2022-10-31T06:39:25;7.70;99.90
66184;DHT22;52989;48.796;9.806;2022-10-31T06:41:51;7.60;99.90
66184;DHT22;52989;48.796;9.806;2022-10-31T06:44:16;7.60;99.90
66184;DHT22;52989;48.796;9.806;2022-10-31T06:46:42;7.60;99.90
66184;DHT22;52989;48.796;9.806;2022-10-31T06:49:07;7.60;99.90
66184;DHT22;52989;48.796;9.806;2022-10-31T06:51:33;7.60;99.90
66184;DHT22;52989;48.796;9.806;2022-10-31T06:53:58;7.50;99.90
66184;DHT22;52989;48.796;9.806;2022-10-31T06:56:24;7.40;99.90
66184;DHT22;52989;48.796;9.806;2022-10-31T06:58:49;7.60;99.90
66184;DHT22;52989;48.796;9.806;2022-10-31T07:01:14;7.60;99.90
66184;DHT22;52989;48.796;9.806;2022-10-31T07:03:40;7.90;99.90
66184;DHT22;52989;48.796;9.806;2022-10-31T07:06:05;7.80;99.90
66184;DHT22;52989;48.796;9.806;2022-10-31T07:08:31;7.70;99.90
66184;DHT22;52989;48.796;9.806;2022-10-31T07:10:56;7.70;99.90
66184;DHT22;52989;48.796;9.806;2022-10-31T07:13:22;7.60;99.90
66184;DHT22;52989;48.796;9.806;2022-10-31T07:15:51;7.60;99.90
66184;DHT22;52989;48.796;9.806;2022-10-31T07:18:17;7.70;99.90
66184;DHT22;52989;48.796;9.806;2022-10-31T07:20:42;7.80;99.90
66184;DHT22;52989;48.796;9.806;2022-10-31T07:23:09;7.90;99.90
66184;DHT22;52989;48.796;9.806;2022-10-31T07:25:34;8.30;99.90
66184;DHT22;52989;48.796;9.806;2022-10-31T07:28:00;8.50;99.90
66184;DHT22;52989;48.796;9.806;2022-10-31T07:30:25;8.60;99.90
66184;DHT22;52989;48.796;9.806;2022-10-31T07:32:51;8.80;99.90
66184;DHT22;52989;48.796;9.806;2022-10-31T07:35:17;8.60;99.90
66184;DHT22;52989;48.796;9.806;2022-10-31T07:37:43;8.60;99.90
66184;DHT22;52989;48.796;9.806;2022-10-31T07:40:09;8.70;99.90
66184;DHT22;52989;48.796;9.806;2022-10-31T07:42:41;8.60;99.90
66184;DHT22;52989;48.796;9.806;2022-10-31T07:45:11;8.60;99.90
66184;DHT22;52989;48.796;9.806;2022-10-31T07:47:37;9.00;99.90
66184;DHT22;52989;48.796;9.806;2022-10-31T07:50:03;9.30;99.90
66184;DHT22;52989;48.796;9.806;2022-10-31T07:52:28;9.70;99.90
66184;DHT22;52989;48.796;9.806;2022-10-31T07:54:54;9.80;99.90
66184;DHT22;52989;48.796;9.806;2022-10-31T07:57:19;9.60;99.90
66184;DHT22;52989;48.796;9.806;2022-10-31T07:59:45;9.70;99.90
66184;DHT22;52989;48.796;9.806;2022-10-31T08:02:10;9.90;99.90
66184;DHT22;52989;48.796;9.806;2022-10-31T08:04:36;10.30;99.90
66184;DHT22;52989;48.796;9.806;2022-10-31T08:07:01;10.30;99.90
66184;DHT22;52989;48.796;9.806;2022-10-31T08:09:26;10.20;99.90
66184;DHT22;52989;48.796;9.806;2022-10-31T08:11:52;10.30;99.90
66184;DHT22;52989;48.796;9.806;2022-10-31T08:14:18;10.10;99.90
66184;DHT22;52989;48.796;9.806;2022-10-31T08:16:43;10.40;99.90
66184;DHT22;52989;48.796;9.806;2022-10-31T08:19:09;10.20;99.90
66184;DHT22;52989;48.796;9.806;2022-10-31T08:21:34;10.10;99.90
66184;DHT22;52989;48.796;9.806;2022-10-31T08:23:59;10.20;99.90
66184;DHT22;52989;48.796;9.806;2022-10-31T08:26:25;10.20;99.90
66184;DHT22;52989;48.796;9.806;2022-10-31T08:28:50;10.50;99.90
66184;DHT22;52989;48.796;9.806;2022-10-31T08:31:16;10.80;99.90
66184;DHT22;52989;48.796;9.806;2022-10-31T08:33:42;11.40;99.90
66184;DHT22;52989;48.796;9.806;2022-10-31T08:36:07;11.30;99.90
66184;DHT22;52989;48.796;9.806;2022-10-31T08:38:32;11.30;99.90
66184;DHT22;52989;48.796;9.806;2022-10-31T08:40:58;11.30;99.90
66184;DHT22;52989;48.796;9.806;2022-10-31T08:43:23;11.60;99.90
66184;DHT22;52989;48.796;9.806;2022-10-31T08:45:49;11.60;99.90
66184;DHT22;52989;48.796;9.806;2022-10-31T08:48:15;11.40;99.90
66184;DHT22;52989;48.796;9.806;2022-10-31T08:50:41;11.70;99.90
66184;DHT22;52989;48.796;9.806;2022-10-31T08:53:07;12.10;99.90
66184;DHT22;52989;48.796;9.806;2022-10-31T08:55:34;12.00;99.90
66184;DHT22;52989;48.796;9.806;2022-10-31T08:58:00;12.10;99.90
66184;DHT22;52989;48.796;9.806;2022-10-31T09:00:26;12.30;99.90
66184;DHT22;52989;48.796;9.806;2022-10-31T09:02:55;12.20;99.90
66184;DHT22;52989;48.796;9.806;2022-10-31T09:05:21;12.30;99.90
66184;DHT22;52989;48.796;9.806;2022-10-31T09:07:46;12.70;99.90
66184;DHT22;52989;48.796;9.806;2022-10-31T09:10:11;12.90;99.90
66184;DHT22;52989;48.796;9.806;2022-10-31T09:12:37;13.10;99.90
66184;DHT22;52989;48.796;9.806;2022-10-31T09:15:02;12.90;99.90
66184;DHT22;52989;48.796;9.806;2022-10-31T09:17:28;13.00;99.90
66184;DHT22;52989;48.796;9.806;2022-10-31T09:19:54;13.00;99.90
66184;DHT22;52989;48.796;9.806;2022-10-31T09:22:20;13.10;99.90
66184;DHT22;52989;48.796;9.806;2022-10-31T09:24:45;13.10;99.90
66184;DHT22;52989;48.796;9.806;2022-10-31T09:27:11;13.50;99.90
66184;DHT22;52989;48.796;9.806;2022-10-31T09:29:36;13.40;99.90
66184;DHT22;52989;48.796;9.806;2022-10-31T09:32:01;13.40;99.90
66184;DHT22;52989;48.796;9.806;2022-10-31T09:34:27;13.70;99.90
66184;DHT22;52989;48.796;9.806;2022-10-31T09:36:53;13.60;99.90
66184;DHT22;52989;48.796;9.806;2022-10-31T09:39:19;13.60;99.90
66184;DHT22;52989;48.796;9.806;2022-10-31T09:44:41;13.90;99.90
66184;DHT22;52989;48.796;9.806;2022-10-31T09:47:15;14.00;99.90
66184;DHT22;52989;48.796;9.806;2022-10-31T09:52:12;14.20;99.90
66184;DHT22;52989;48.796;9.806;2022-10-31T09:54:43;14.20;99.90
66184;DHT22;52989;48.796;9.806;2022-10-31T09:57:15;14.40;99.90
66184;DHT22;52989;48.796;9.806;2022-10-31T09:59:43;14.50;99.90
66184;DHT22;52989;48.796;9.806;2022-10-31T10:04:43;15.00;99.90
66184;DHT22;52989;48.796;9.806;2022-10-31T10:07:14;15.30;99.90
66184;DHT22;52989;48.796;9.806;2022-10-31T10:09:41;15.20;99.90
66184;DHT22;52989;48.796;9.806;2022-10-31T10:12:09;15.30;99.90
66184;DHT22;52989;48.796;9.806;2022-10-31T10:30:54;16.10;99.90
66184;DHT22;52989;48.796;9.806;2022-10-31T10:32:59;16.40;99.90
66184;DHT22;52989;48.796;9.806;2022-10-31T10:35:27;16.30;99.90
66184;DHT22;52989;48.796;9.806;2022-10-31T10:37:57;16.50;99.90
66184;DHT22;52989;48.796;9.806;2022-10-31T10:40:25;16.50;99.90
66184;DHT22;52989;48.796;9.806;2022-10-31T10:46:34;16.50;99.90
66184;DHT22;52989;48.796;9.806;2022-10-31T10:51:27;17.10;98.90
66184;DHT22;52989;48.796;9.806;2022-10-31T10:54:08;16.90;99.20
66184;DHT22;52989;48.796;9.806;2022-10-31T10:59:14;17.20;99.30
66184;DHT22;52989;48.796;9.806;2022-10-31T11:01:41;17.30;97.80
66184;DHT22;52989;48.796;9.806;2022-10-31T11:07:02;17.30;98.40
66184;DHT22;52989;48.796;9.806;2022-10-31T11:09:28;17.20;97.50
66184;DHT22;52989;48.796;9.806;2022-10-31T11:11:54;17.40;97.30
66184;DHT22;52989;48.796;9.806;2022-10-31T11:14:21;17.50;97.30
66184;DHT22;52989;48.796;9.806;2022-10-31T11:16:47;17.60;97.40
66184;DHT22;52989;48.796;9.806;2022-10-31T11:21:41;17.80;97.80
66184;DHT22;52989;48.796;9.806;2022-10-31T11:26:37;18.00;96.80
66184;DHT22;52989;48.796;9.806;2022-10-31T11:29:04;18.10;96.60
66184;DHT22;52989;48.796;9.806;2022-10-31T11:31:31;18.20;96.20
66184;DHT22;52989;48.796;9.806;2022-10-31T11:38:52;18.40;95.80
66184;DHT22;52989;48.796;9.806;2022-10-31T11:41:28;18.40;95.80
66184;DHT22;52989;48.796;9.806;2022-10-31T11:46:32;18.40;95.90
66184;DHT22;52989;48.796;9.806;2022-10-31T11:48:58;18.50;95.80
66184;DHT22;52989;48.796;9.806;2022-10-31T11:51:24;18.60;95.70
66184;DHT22;52989;48.796;9.806;2022-10-31T11:53:51;18.70;95.20
66184;DHT22;52989;48.796;9.806;2022-10-31T11:56:17;18.90;95.30
66184;DHT22;52989;48.796;9.806;2022-10-31T11:58:42;19.10;94.50
66184;DHT22;52989;48.796;9.806;2022-10-31T12:01:24;19.10;94.60
66184;DHT22;52989;48.796;9.806;2022-10-31T12:03:54;19.00;94.90
66184;DHT22;52989;48.796;9.806;2022-10-31T12:06:41;18.90;94.50
66184;DHT22;52989;48.796;9.806;2022-10-31T12:09:25;19.10;94.20
66184;DHT22;52989;48.796;9.806;2022-10-31T12:14:24;19.40;94.40
66184;DHT22;52989;48.796;9.806;2022-10-31T12:16:56;19.40;93.50
66184;DHT22;52989;48.796;9.806;2022-10-31T12:19:32;19.30;93.60
66184;DHT22;52989;48.796;9.806;2022-10-31T12:24:33;19.40;93.90
66184;DHT22;52989;48.796;9.806;2022-10-31T12:27:03;19.30;94.30
66184;DHT22;52989;48.796;9.806;2022-10-31T12:29:39;19.20;94.10
66184;DHT22;52989;48.796;9.806;2022-10-31T12:32:19;19.30;93.70
66184;DHT22;52989;48.796;9.806;2022-10-31T12:34:55;19.30;93.60
66184;DHT22;52989;48.796;9.806;2022-10-31T12:42:51;19.50;94.00
66184;DHT22;52989;48.796;9.806;2022-10-31T12:58:23;19.80;94.10
66184;DHT22;52989;48.796;9.806;2022-10-31T13:00:52;19.60;94.10
66184;DHT22;52989;48.796;9.806;2022-10-31T13:03:26;19.40;95.80
66184;DHT22;52989;48.796;9.806;2022-10-31T13:05:55;19.20;96.60
66184;DHT22;52989;48.796;9.806;2022-10-31T13:08:22;19.00;97.00
66184;DHT22;52989;48.796;9.806;2022-10-31T13:10:51;18.90;98.30
66184;DHT22;52989;48.796;9.806;2022-10-31T13:15:50;18.90;96.70
66184;DHT22;52989;48.796;9.806;2022-10-31T13:18:20;18.90;97.50
66184;DHT22;52989;48.796;9.806;2022-10-31T13:20:48;18.90;98.00
66184;DHT22;52989;48.796;9.806;2022-10-31T13:23:22;19.00;97.90
66184;DHT22;52989;48.796;9.806;2022-10-31T13:25:54;19.10;97.30
66184;DHT22;52989;48.796;9.806;2022-10-31T13:28:24;19.20;96.70
66184;DHT22;52989;48.796;9.806;2022-10-31T13:30:51;19.20;97.10
66184;DHT22;52989;48.796;9.806;2022-10-31T13:35:55;19.00;98.60
66184;DHT22;52989;48.796;9.806;2022-10-31T13:41:00;18.90;99.40
66184;DHT22;52989;48.796;9.806;2022-10-31T13:43:32;18.70;99.70
66184;DHT22;52989;48.796;9.806;2022-10-31T13:46:00;18.70;99.80
66184;DHT22;52989;48.796;9.806;2022-10-31T13:48:36;18.70;98.60
66184;DHT22;52989;48.796;9.806;2022-10-31T13:51:03;18.60;97.00
66184;DHT22;52989;48.796;9.806;2022-10-31T13:53:36;18.60;99.60
66184;DHT22;52989;48.796;9.806;2022-10-31T13:56:12;18.50;99.70
66184;DHT22;52989;48.796;9.806;2022-10-31T13:58:40;18.60;99.90
66184;DHT22;52989;48.796;9.806;2022-10-31T14:03:36;18.50;99.90
66184;DHT22;52989;48.796;9.806;2022-10-31T14:06:02;18.50;99.30
66184;DHT22;52989;48.796;9.806;2022-10-31T14:08:28;18.50;99.00
66184;DHT22;52989;48.796;9.806;2022-10-31T14:10:56;18.50;99.90
66184;DHT22;52989;48.796;9.806;2022-10-31T14:13:23;18.60;99.90
66184;DHT22;52989;48.796;9.806;2022-10-31T14:18:31;18.80;99.90
66184;DHT22;52989;48.796;9.806;2022-10-31T14:20:57;18.90;99.90
66184;DHT22;52989;48.796;9.806;2022-10-31T14:23:31;19.10;99.90
66184;DHT22;52989;48.796;9.806;2022-10-31T14:26:08;19.50;98.30
66184;DHT22;52989;48.796;9.806;2022-10-31T14:28:41;19.70;97.40
66184;DHT22;52989;48.796;9.806;2022-10-31T14:33:50;19.90;96.30
66184;DHT22;52989;48.796;9.806;2022-10-31T14:36:18;20.10;96.30
66184;DHT22;52989;48.796;9.806;2022-10-31T14:38:52;19.80;96.40
66184;DHT22;52989;48.796;9.806;2022-10-31T14:41:37;19.70;96.80
66184;DHT22;52989;48.796;9.806;2022-10-31T14:44:22;19.80;97.10
66184;DHT22;52989;48.796;9.806;2022-10-31T14:49:31;19.30;98.80
66184;DHT22;52989;48.796;9.806;2022-10-31T14:51:58;19.00;99.50
66184;DHT22;52989;48.796;9.806;2022-10-31T14:54:26;18.90;98.90
66184;DHT22;52989;48.796;9.806;2022-10-31T14:56:56;19.00;97.70
66184;DHT22;52989;48.796;9.806;2022-10-31T14:59:24;19.00;97.70
66184;DHT22;52989;48.796;9.806;2022-10-31T15:01:54;18.80;99.10
66184;DHT22;52989;48.796;9.806;2022-10-31T15:04:30;18.50;99.80
66184;DHT22;52989;48.796;9.806;2022-10-31T15:06:59;18.40;99.90
66184;DHT22;52989;48.796;9.806;2022-10-31T15:09:27;18.40;99.90
66184;DHT22;52989;48.796;9.806;2022-10-31T15:11:53;18.30;99.90
66184;DHT22;52989;48.796;9.806;2022-10-31T15:14:28;18.20;99.90
66184;DHT22;52989;48.796;9.806;2022-10-31T15:16:55;18.10;99.90
66184;DHT22;52989;48.796;9.806;2022-10-31T15:19:23;17.90;99.90
66184;DHT22;52989;48.796;9.806;2022-10-31T15:21:50;17.80;99.90
66184;DHT22;52989;48.796;9.806;2022-10-31T15:24:16;17.70;99.90
66184;DHT22;52989;48.796;9.806;2022-10-31T15:26:52;17.50;99.90
66184;DHT22;52989;48.796;9.806;2022-10-31T15:29:24;17.40;99.90
66184;DHT22;52989;48.796;9.806;2022-10-31T15:31:52;17.30;99.90
66184;DHT22;52989;48.796;9.806;2022-10-31T15:34:22;17.10;99.90
66184;DHT22;52989;48.796;9.806;2022-10-31T15:36:49;16.90;99.90
66184;DHT22;52989;48.796;9.806;2022-10-31T15:39:15;16.70;99.90
66184;DHT22;52989;48.796;9.806;2022-10-31T15:44:16;16.40;99.90
66184;DHT22;52989;48.796;9.806;2022-10-31T15:46:51;16.30;99.90
66184;DHT22;52989;48.796;9.806;2022-10-31T15:49:38;16.20;99.90
66184;DHT22;52989;48.796;9.806;2022-10-31T15:54:42;15.90;99.90
66184;DHT22;52989;48.796;9.806;2022-10-31T15:57:10;15.90;99.90
66184;DHT22;52989;48.796;9.806;2022-10-31T15:59:36;16.00;99.90
66184;DHT22;52989;48.796;9.806;2022-10-31T16:02:03;15.90;99.90
66184;DHT22;52989;48.796;9.806;2022-10-31T16:04:29;15.70;99.90
66184;DHT22;52989;48.796;9.806;2022-10-31T16:09:26;15.50;99.90
66184;DHT22;52989;48.796;9.806;2022-10-31T16:11:52;15.40;99.90
66184;DHT22;52989;48.796;9.806;2022-10-31T16:14:22;15.30;99.90
66184;DHT22;52989;48.796;9.806;2022-10-31T16:16:48;15.10;99.90
66184;DHT22;52989;48.796;9.806;2022-10-31T16:19:21;14.90;99.90
66184;DHT22;52989;48.796;9.806;2022-10-31T16:21:48;14.90;99.90
66184;DHT22;52989;48.796;9.806;2022-10-31T16:26:39;14.70;99.90
66184;DHT22;52989;48.796;9.806;2022-10-31T16:29:22;14.80;99.90
66184;DHT22;52989;48.796;9.806;2022-10-31T16:31:48;14.70;99.90
66184;DHT22;52989;48.796;9.806;2022-10-31T16:34:15;14.50;99.90
66184;DHT22;52989;48.796;9.806;2022-10-31T16:36:42;14.40;99.90
66184;DHT22;52989;48.796;9.806;2022-10-31T16:39:08;14.30;99.90
66184;DHT22;52989;48.796;9.806;2022-10-31T16:41:40;14.40;99.90
66184;DHT22;52989;48.796;9.806;2022-10-31T16:44:12;14.50;99.90
66184;DHT22;52989;48.796;9.806;2022-10-31T16:46:39;14.40;99.90
66184;DHT22;52989;48.796;9.806;2022-10-31T16:49:04;14.50;99.90
66184;DHT22;52989;48.796;9.806;2022-10-31T16:51:30;14.20;99.90
66184;DHT22;52989;48.796;9.806;2022-10-31T16:53:55;14.10;99.90
66184;DHT22;52989;48.796;9.806;2022-10-31T16:56:26;14.10;99.90
66184;DHT22;52989;48.796;9.806;2022-10-31T16:58:53;14.00;99.90
66184;DHT22;52989;48.796;9.806;2022-10-31T17:01:18;13.80;99.90
66184;DHT22;52989;48.796;9.806;2022-10-31T17:03:44;13.70;99.90
66184;DHT22;52989;48.796;9.806;2022-10-31T17:06:12;13.70;99.90
66184;DHT22;52989;48.796;9.806;2022-10-31T17:08:37;13.60;99.90
66184;DHT22;52989;48.796;9.806;2022-10-31T17:11:03;13.60;99.90
66184;DHT22;52989;48.796;9.806;2022-10-31T17:13:29;13.60;99.90
66184;DHT22;52989;48.796;9.806;2022-10-31T17:15:56;13.40;99.90
66184;DHT22;52989;48.796;9.806;2022-10-31T17:18:21;13.40;99.90
66184;DHT22;52989;48.796;9.806;2022-10-31T17:20:47;13.30;99.90
66184;DHT22;52989;48.796;9.806;2022-10-31T17:23:14;13.20;99.90
66184;DHT22;52989;48.796;9.806;2022-10-31T17:25:39;13.20;99.90
66184;DHT22;52989;48.796;9.806;2022-10-31T17:28:06;13.30;99.90
66184;DHT22;52989;48.796;9.806;2022-10-31T17:30:32;13.20;99.90
66184;DHT22;52989;48.796;9.806;2022-10-31T17:32:57;13.10;99.90
66184;DHT22;52989;48.796;9.806;2022-10-31T17:35:23;13.00;99.90
66184;DHT22;52989;48.796;9.806;2022-10-31T17:37:49;13.10;99.90
66184;DHT22;52989;48.796;9.806;2022-10-31T17:40:15;12.80;99.90
66184;DHT22;52989;48.796;9.806;2022-10-31T17:42:41;12.80;99.90
66184;DHT22;52989;48.796;9.806;2022-10-31T17:45:07;12.80;99.90